createdAt,value
2023-02-12T00:01:40.956Z,1.20
2023-02-12T00:05:02.812Z,1.00
2023-02-12T00:08:27.007Z,0.60
2023-02-12T00:11:49.886Z,0.80
2023-02-12T00:15:11.751Z,1.00
2023-02-12T00:18:33.801Z,0.80
2023-02-12T00:21:55.652Z,0.90
2023-02-12T00:25:18.994Z,1.30
2023-02-12T00:28:41.286Z,0.80
2023-02-12T00:32:03.075Z,0.90
2023-02-12T00:35:24.861Z,0.90
2023-02-12T00:38:47.431Z,0.90
2023-02-12T00:42:09.699Z,0.90
2023-02-12T00:45:31.529Z,0.80
2023-02-12T00:48:53.293Z,0.80
2023-02-12T00:52:15.238Z,0.60
2023-02-12T00:55:39.173Z,0.80
2023-02-12T00:59:01.069Z,0.60
2023-02-12T01:02:23.016Z,0.50
2023-02-12T01:05:44.859Z,0.60
2023-02-12T01:09:07.689Z,1.30
2023-02-12T01:12:29.871Z,0.70
2023-02-12T01:16:06.709Z,0.70
2023-02-12T01:19:28.589Z,0.70
2023-02-12T01:22:50.416Z,0.40
2023-02-12T01:26:13.119Z,0.70
2023-02-12T01:29:34.914Z,0.70
2023-02-12T01:32:56.866Z,0.50
2023-02-12T01:36:19.676Z,0.30
2023-02-12T01:39:43.299Z,0.50
2023-02-12T01:43:10.097Z,0.60
2023-02-12T01:46:31.937Z,0.50
2023-02-12T01:49:54.056Z,0.40
2023-02-12T01:53:20.339Z,0.90
2023-02-12T01:56:42.504Z,0.60
2023-02-12T02:00:08.471Z,0.60
2023-02-12T02:03:38.324Z,0.50
2023-02-12T02:07:03.798Z,0.50
2023-02-12T02:10:25.810Z,0.50
2023-02-12T02:14:08.122Z,0.50
2023-02-12T02:17:29.916Z,0.40
2023-02-12T02:21:19.526Z,0.50
2023-02-12T02:24:57.922Z,0.50
2023-02-12T02:28:31.482Z,0.40
2023-02-12T02:32:07.567Z,0.50
2023-02-12T02:35:38.247Z,0.50
2023-02-12T02:39:20.338Z,0.60
2023-02-12T02:42:52.660Z,0.50
2023-02-12T02:46:23.167Z,0.40
2023-02-12T02:49:52.202Z,0.70
2023-02-12T02:53:21.253Z,0.40
2023-02-12T03:00:27.118Z,0.40
2023-02-12T03:04:13.633Z,0.50
2023-02-12T03:07:39.248Z,0.40
2023-02-12T03:11:17.820Z,0.40
2023-02-12T03:14:43.581Z,0.50
2023-02-12T03:18:10.325Z,0.40
2023-02-12T03:22:06.165Z,0.30
2023-02-12T03:25:41.321Z,0.30
2023-02-12T03:29:03.853Z,0.40
2023-02-12T03:32:44.346Z,0.60
2023-02-12T03:36:14.734Z,0.50
2023-02-12T03:39:36.553Z,0.60
2023-02-12T03:43:21.370Z,0.50
2023-02-12T03:46:50.171Z,0.40
2023-02-12T03:50:32.259Z,0.60
2023-02-12T03:53:56.939Z,0.40
2023-02-12T03:57:21.917Z,0.70
2023-02-12T04:00:43.847Z,0.40
2023-02-12T04:04:09.717Z,0.40
2023-02-12T04:07:31.589Z,0.50
2023-02-12T04:11:07.032Z,0.50
2023-02-12T04:15:07.334Z,0.40
2023-02-12T04:18:34.604Z,0.30
2023-02-12T04:22:15.083Z,0.40
2023-02-12T04:25:42.197Z,0.30
2023-02-12T04:29:23.036Z,0.40
2023-02-12T04:32:52.124Z,0.30
2023-02-12T04:36:17.451Z,0.40
2023-02-12T04:39:44.047Z,0.40
2023-02-12T04:43:05.892Z,0.40
2023-02-12T04:46:27.775Z,0.40
2023-02-12T04:49:49.647Z,0.60
2023-02-12T04:53:11.604Z,0.30
2023-02-12T04:56:33.495Z,0.30
2023-02-12T04:59:55.450Z,0.40
2023-02-12T05:03:17.199Z,0.50
2023-02-12T05:06:39.680Z,1.30
2023-02-12T05:10:01.686Z,0.50
2023-02-12T05:13:23.549Z,0.50
2023-02-12T05:16:45.420Z,0.60
2023-02-12T05:20:07.972Z,1.00
2023-02-12T05:23:31.578Z,1.00
2023-02-12T05:26:53.526Z,1.10
2023-02-12T05:30:21.097Z,0.80
2023-02-12T05:33:44.226Z,1.00
2023-02-12T05:37:06.277Z,0.90
2023-02-12T05:40:28.241Z,0.70
2023-02-12T05:43:50.632Z,0.80
2023-02-12T05:47:12.457Z,1.10
2023-02-12T05:50:35.210Z,1.00
2023-02-12T05:54:04.918Z,0.90
2023-02-12T05:57:26.700Z,0.60
2023-02-12T06:00:48.582Z,1.00
2023-02-12T06:04:18.791Z,1.00
2023-02-12T06:07:40.636Z,1.10
2023-02-12T06:11:05.004Z,1.20
2023-02-12T06:14:26.997Z,1.00
2023-02-12T06:17:49.357Z,0.80
2023-02-12T06:21:11.234Z,1.00
2023-02-12T06:24:33.145Z,1.50
2023-02-12T06:27:54.941Z,1.00
2023-02-12T06:31:28.456Z,1.40
2023-02-12T06:34:50.781Z,1.10
2023-02-12T06:38:12.669Z,0.90
2023-02-12T06:41:34.926Z,1.10
2023-02-12T06:45:26.977Z,1.20
2023-02-12T06:48:41.839Z,1.00
2023-02-12T06:55:39.919Z,1.10
2023-02-12T06:59:01.722Z,0.80
2023-02-12T07:02:24.703Z,1.00
2023-02-12T07:05:48.382Z,0.90
2023-02-12T07:09:10.286Z,0.70
2023-02-12T07:12:39.172Z,0.80
2023-02-12T07:16:08.694Z,0.90
2023-02-12T07:22:52.499Z,1.20
2023-02-12T07:26:15.174Z,0.90
2023-02-12T07:29:36.939Z,0.90
2023-02-12T07:33:01.650Z,0.80
2023-02-12T07:36:24.783Z,1.00
2023-02-12T07:39:46.579Z,0.70
2023-02-12T07:43:08.469Z,0.70
2023-02-12T07:46:36.199Z,0.60
2023-02-12T07:49:58.211Z,0.80
2023-02-12T07:53:19.986Z,0.80
2023-02-12T07:56:43.246Z,0.70
2023-02-12T08:00:06.155Z,0.80
2023-02-12T08:03:33.922Z,0.80
2023-02-12T08:06:56.577Z,0.90
2023-02-12T08:10:22.357Z,1.50
2023-02-12T08:13:44.345Z,1.60
2023-02-12T08:17:06.362Z,2.30
2023-02-12T08:20:28.165Z,0.80
2023-02-12T08:23:50.802Z,1.00
2023-02-12T08:27:12.843Z,0.60
2023-02-12T08:30:34.837Z,0.80
2023-02-12T08:33:57.383Z,0.80
2023-02-12T08:37:19.353Z,0.70
2023-02-12T08:40:41.322Z,0.70
2023-02-12T08:44:05.601Z,1.50
2023-02-12T08:47:29.743Z,1.00
2023-02-12T08:50:52.961Z,9.30
2023-02-12T08:54:20.342Z,4.20
2023-02-12T08:57:42.753Z,2.80
2023-02-12T09:01:05.898Z,1.90
2023-02-12T09:04:28.758Z,0.90
2023-02-12T09:07:53.854Z,1.00
2023-02-12T09:11:24.743Z,1.10
2023-02-12T09:14:46.669Z,0.90
2023-02-12T09:18:08.638Z,0.90
2023-02-12T09:21:31.079Z,1.50
2023-02-12T09:24:52.989Z,0.80
2023-02-12T09:28:14.850Z,0.80
2023-02-12T09:31:36.917Z,0.80
2023-02-12T09:34:58.854Z,1.00
2023-02-12T09:38:20.725Z,1.10
2023-02-12T09:42:04.273Z,1.20
2023-02-12T09:45:27.661Z,0.90
2023-02-12T09:49:09.530Z,1.00
2023-02-12T09:52:31.932Z,1.10
2023-02-12T09:55:54.707Z,1.30
2023-02-12T09:59:47.415Z,1.20
2023-02-12T10:03:17.199Z,1.10
2023-02-12T10:06:51.525Z,1.20
2023-02-12T10:10:38.712Z,1.00
2023-02-12T10:14:40.601Z,1.30
2023-02-12T10:18:30.384Z,1.10
2023-02-12T10:22:26.488Z,1.10
2023-02-12T10:25:55.721Z,1.00
2023-02-12T10:29:23.589Z,1.20
2023-02-12T10:32:48.065Z,1.00
2023-02-12T10:36:45.686Z,0.80
2023-02-12T10:40:19.759Z,1.30
2023-02-12T10:43:41.799Z,1.10
2023-02-12T10:47:03.807Z,1.00
2023-02-12T10:50:53.406Z,0.90
2023-02-12T10:54:43.918Z,1.10
2023-02-12T10:58:21.642Z,1.10
2023-02-12T11:01:49.945Z,1.40
2023-02-12T11:05:33.834Z,1.60
2023-02-12T11:08:58.229Z,1.70
2023-02-12T11:12:21.981Z,1.60
2023-02-12T11:15:48.269Z,1.50
2023-02-12T11:19:29.010Z,1.60
2023-02-12T11:23:06.373Z,1.00
2023-02-12T11:26:29.369Z,1.20
2023-02-12T11:30:10.495Z,1.50
2023-02-12T11:33:37.070Z,1.20
2023-02-12T11:36:59.351Z,1.40
2023-02-12T11:40:29.688Z,1.70
2023-02-12T11:43:52.101Z,1.50
2023-02-12T11:47:22.267Z,1.80
2023-02-12T11:50:48.391Z,1.50
2023-02-12T11:57:43.955Z,1.70
2023-02-12T12:01:33.666Z,1.40
2023-02-12T12:05:03.815Z,1.60
2023-02-12T12:08:41.024Z,1.50
2023-02-12T12:12:11.527Z,2.10
2023-02-12T12:15:55.875Z,1.50
2023-02-12T12:19:44.287Z,1.60
2023-02-12T12:23:25.858Z,1.70
2023-02-12T12:26:51.312Z,1.10
2023-02-12T12:30:45.012Z,1.20
2023-02-12T12:34:18.307Z,1.50
2023-02-12T12:38:08.598Z,2.00
2023-02-12T12:41:33.422Z,2.10
2023-02-12T12:45:20.895Z,2.50
2023-02-12T12:49:14.828Z,2.00
2023-02-12T12:52:59.512Z,2.40
2023-02-12T12:56:52.469Z,2.50
2023-02-12T13:00:32.910Z,2.90
2023-02-12T13:04:18.401Z,2.70
2023-02-12T13:08:03.273Z,2.50
2023-02-12T13:11:39.331Z,3.50
2023-02-12T13:15:29.348Z,3.20
2023-02-12T13:18:57.152Z,3.20
2023-02-12T13:22:40.988Z,3.90
2023-02-12T13:26:33.017Z,2.80
2023-02-12T13:30:00.343Z,3.10
2023-02-12T13:33:34.525Z,3.10
2023-02-12T13:36:57.496Z,3.30
2023-02-12T13:40:24.905Z,3.10
2023-02-12T13:44:04.816Z,2.80
2023-02-12T13:47:45.546Z,2.80
2023-02-12T13:51:10.400Z,3.00
2023-02-12T13:55:07.939Z,2.90
2023-02-12T13:58:32.584Z,2.70
2023-02-12T14:01:54.481Z,2.70
2023-02-12T14:05:33.249Z,2.70
2023-02-12T14:09:09.739Z,3.90
2023-02-12T14:12:35.036Z,3.50
2023-02-12T14:15:59.177Z,3.30
2023-02-12T14:19:56.861Z,3.20
2023-02-12T14:23:31.672Z,3.20
2023-02-12T14:26:55.121Z,3.10
2023-02-12T14:30:16.936Z,2.70
2023-02-12T14:33:41.510Z,3.30
2023-02-12T14:37:13.132Z,3.00
2023-02-12T14:40:34.916Z,2.60
2023-02-12T14:44:27.448Z,3.20
2023-02-12T14:47:52.005Z,2.80
2023-02-12T14:51:38.759Z,2.80
2023-02-12T14:55:06.151Z,2.70
2023-02-12T14:58:30.853Z,2.70
2023-02-12T15:01:53.344Z,2.80
2023-02-12T15:05:53.496Z,3.00
2023-02-12T15:09:22.297Z,3.10
2023-02-12T15:12:53.667Z,2.70
2023-02-12T15:16:32.442Z,3.40
2023-02-12T15:20:06.924Z,3.00
2023-02-12T15:23:34.482Z,3.20
2023-02-12T15:26:59.009Z,2.80
2023-02-12T15:30:26.664Z,2.70
2023-02-12T15:33:53.005Z,3.60
2023-02-12T15:37:23.053Z,3.50
2023-02-12T15:40:55.181Z,3.30
2023-02-12T15:44:19.741Z,3.50
2023-02-12T15:47:42.971Z,4.10
2023-02-12T15:51:28.774Z,3.30
2023-02-12T15:54:50.692Z,3.20
2023-02-12T15:58:49.171Z,3.70
2023-02-12T16:02:26.026Z,4.10
2023-02-12T16:05:49.783Z,3.30
2023-02-12T16:09:27.465Z,4.00
2023-02-12T16:12:50.739Z,2.80
2023-02-12T16:16:12.527Z,3.60
2023-02-12T16:19:37.059Z,3.50
2023-02-12T16:23:00.144Z,4.00
2023-02-12T16:26:26.394Z,4.20
2023-02-12T16:29:51.578Z,3.80
2023-02-12T16:33:34.047Z,4.60
2023-02-12T16:37:00.188Z,4.70
2023-02-12T16:40:30.809Z,4.90
2023-02-12T16:44:01.933Z,5.00
2023-02-12T16:47:25.250Z,4.60
2023-02-12T16:50:53.994Z,4.40
2023-02-12T16:54:36.210Z,5.20
2023-02-12T16:58:01.486Z,5.60
2023-02-12T17:01:26.327Z,4.40
2023-02-12T17:04:51.068Z,5.90
2023-02-12T17:08:17.203Z,6.00
2023-02-12T17:11:39.022Z,6.10
2023-02-12T17:15:08.508Z,5.60
2023-02-12T17:18:33.035Z,6.20
2023-02-12T17:21:54.980Z,6.10
2023-02-12T17:25:17.103Z,6.80
2023-02-12T17:28:41.621Z,7.20
2023-02-12T17:32:03.557Z,7.50
2023-02-12T17:35:25.373Z,6.80
2023-02-12T17:38:47.133Z,7.10
2023-02-12T17:42:13.549Z,7.20
2023-02-12T17:45:35.463Z,6.70
2023-02-12T17:48:58.588Z,8.10
2023-02-12T17:52:20.438Z,7.60
2023-02-12T17:55:42.302Z,7.80
2023-02-12T17:59:04.194Z,7.80
2023-02-12T18:02:27.779Z,7.30
2023-02-12T18:05:49.790Z,7.80
2023-02-12T18:09:12.590Z,6.80
2023-02-12T18:12:36.295Z,6.30
2023-02-12T18:15:58.241Z,5.70
2023-02-12T18:19:20.090Z,7.20
2023-02-12T18:22:42.207Z,6.40
2023-02-12T18:26:12.130Z,6.90
2023-02-12T18:29:35.579Z,7.10
2023-02-12T18:32:58.206Z,7.50
2023-02-12T18:36:21.418Z,7.20
2023-02-12T18:39:43.267Z,7.10
2023-02-12T18:43:05.324Z,7.10
2023-02-12T18:46:30.523Z,6.20
2023-02-12T18:49:52.351Z,6.40
2023-02-12T18:53:16.732Z,6.40
2023-02-12T18:56:41.099Z,7.20
2023-02-12T19:00:05.221Z,6.80
2023-02-12T19:03:27.454Z,7.30
2023-02-12T19:06:51.253Z,6.00
2023-02-12T19:10:13.764Z,6.00
2023-02-12T19:13:35.680Z,6.70
2023-02-12T19:16:57.538Z,6.70
2023-02-12T19:20:21.733Z,6.30
2023-02-12T19:23:43.926Z,5.90
2023-02-12T19:27:05.780Z,6.60
2023-02-12T19:30:27.621Z,6.10
2023-02-12T19:33:50.947Z,7.90
2023-02-12T19:37:13.957Z,7.90
2023-02-12T19:40:35.814Z,8.20
2023-02-12T19:44:00.362Z,8.20
2023-02-12T19:47:22.290Z,8.90
2023-02-12T19:50:47.075Z,8.50
2023-02-12T19:54:11.972Z,8.40
2023-02-12T19:57:36.808Z,8.70
2023-02-12T20:00:59.425Z,8.20
2023-02-12T20:04:27.699Z,9.00
2023-02-12T20:11:37.416Z,7.80
2023-02-12T20:15:03.494Z,8.10
2023-02-12T20:18:27.918Z,7.70
2023-02-12T20:22:01.696Z,8.20
2023-02-12T20:25:31.079Z,8.80
2023-02-12T20:32:16.413Z,8.20
2023-02-12T20:35:40.784Z,7.60
2023-02-12T20:39:07.349Z,8.60
2023-02-12T20:42:29.451Z,8.40
2023-02-12T20:45:51.491Z,7.60
2023-02-12T20:49:20.065Z,8.00
2023-02-12T20:52:42.833Z,8.20
2023-02-12T20:56:11.122Z,6.90
2023-02-12T20:59:33.508Z,7.30
2023-02-12T21:02:55.564Z,7.80
2023-02-12T21:06:19.624Z,8.60
2023-02-12T21:09:47.361Z,8.00
2023-02-12T21:13:09.823Z,7.80
2023-02-12T21:16:35.471Z,7.90
2023-02-12T21:19:57.371Z,8.20
2023-02-12T21:23:19.189Z,7.20
2023-02-12T21:26:41.282Z,8.80
2023-02-12T21:30:03.232Z,8.90
2023-02-12T21:33:28.637Z,8.90
2023-02-12T21:36:54.232Z,8.00
2023-02-12T21:40:16.713Z,8.80
2023-02-12T21:43:39.531Z,7.90
2023-02-12T21:47:01.812Z,9.40
2023-02-12T21:50:23.627Z,8.20
2023-02-12T21:53:46.842Z,8.60
2023-02-12T21:57:08.778Z,7.50
2023-02-12T22:00:30.616Z,8.30
2023-02-12T22:03:52.762Z,7.30
2023-02-12T22:07:16.479Z,7.40
2023-02-12T22:10:39.498Z,8.70
2023-02-12T22:14:08.361Z,8.40
2023-02-12T22:17:36.902Z,8.00
2023-02-12T22:21:04.671Z,8.80
2023-02-12T22:24:26.803Z,7.40
2023-02-12T22:27:48.633Z,7.20
2023-02-12T22:31:12.022Z,9.80
2023-02-12T22:34:33.961Z,8.10
2023-02-12T22:37:56.025Z,8.20
2023-02-12T22:41:18.174Z,8.30
2023-02-12T22:44:39.988Z,7.80
2023-02-12T22:48:01.783Z,7.40
2023-02-12T22:51:26.701Z,7.90
2023-02-12T22:54:48.773Z,8.80
2023-02-12T22:58:11.097Z,8.70
2023-02-12T23:01:33.145Z,8.30
2023-02-12T23:04:54.986Z,8.90
2023-02-12T23:08:19.179Z,8.20
2023-02-12T23:11:41.077Z,9.00
2023-02-12T23:15:03.017Z,8.10
2023-02-12T23:18:31.132Z,8.30
2023-02-12T23:25:28.583Z,8.60
2023-02-12T23:28:51.686Z,7.70
2023-02-12T23:32:13.718Z,8.30
2023-02-12T23:35:46.990Z,8.60
2023-02-12T23:39:11.769Z,9.40
2023-02-12T23:42:39.247Z,7.70
2023-02-12T23:46:01.074Z,8.90
2023-02-12T23:49:22.968Z,8.10
2023-02-12T23:52:49.778Z,8.60
2023-02-12T23:56:15.480Z,8.70
2023-02-12T23:59:37.341Z,7.00
